Indianola, WA (98342)

1:18 PM PDT on April 29, 2017 (GMT -0700)
WeatherOLA | | Change Station

Elev 341 ft 47.75 °N, 122.52 °W | Updated 6 seconds ago

Overcast
Overcast
51.0 °F
Feels Like 51.0 °F
N
1.2
Wind Variable Wind from ENE
Gusts 1.2 mph

Today
High -- | Low -- °F
--% Chance of Precip.
Yesterday
High -- | Low -- °F
Precip. -- in
Pressure 30.21 in
Visibility 10.0 miles
Clouds Overcast 9000 ft
Dew Point 45 °F
Humidity 80%
Rainfall 0.00 in
Snow Depth Not available.
5:55 AM 8:20 PM
Waxing Crescent, 16% visible
METAR KPAE 291953Z 13012KT 10SM OVC090 11/04 A3020 RMK AO2 SLP229 T01060044
Pressure 30.21 in
Visibility 10.0 miles
Clouds Overcast 9000 ft
Dew Point 45 °F
Humidity 80%
Rainfall 0.00 in
Snow Depth Not available.
5:55 AM 8:20 PM
Waxing Crescent, 16% visible
METAR KPAE 291953Z 13012KT 10SM OVC090 11/04 A3020 RMK AO2 SLP229 T01060044

Get Severe Weather Alerts

Thanks for signing up!

Be on the lookout for a verification email in your inbox.

You'll start receiving the daily forecast at 8 AM.

×

10-Day Weather Forecast

Almanac

Astronomy

Apr. 29, 2017 Rise Set
Actual Time
Civil Twilight
Nautical Twilight
Astronomical Twilight
Moon
Length of Visible Light
Length of Day
Tomorrow will be .
, % of the Moon is Illuminated

Today's Extremes

State Highs State Lows

Community

WunderPhotos

WunderBlog® & News

Nearby

Air Quality

  Air Quality AQ Index Pollutant
Not available.

Snow Depth

Station Depth Elevation

Earthquake Activity

City Distance Mag. Time & Date
Minimum magnitude displayed is 2.5.

Coastal Water Temperatures

Place Temperature

Stations

Nearby Weather Stations

Station Location Temp. Windchill Dew Point Humidity Wind Precip. Elev Updated Type
                   

Watches & Warnings

There are currently no watches in effect.